This is the latest recevied weather packets stored in our database for station/object K4ROM-1. If no packets are shown the sender has not sent any weather packets the latest 10 day(s).
| Time | Temp. | Humidity | Pressure | Rain* | Wind** | Luminosity | Snow |
|---|---|---|---|---|---|---|---|
| 1777648203 | 16.11° C | 55% | 1016.9 hPa | 0 mm | 0 m/s | - | - |
| 1777647603 | 15° C | 59% | 1016.9 hPa | 0 mm | 0 m/s | - | - |
| 1777647004 | 15° C | 58% | 1017 hPa | 0 mm | 0 m/s | - | - |
| 1777646404 | 15° C | 56% | 1016.5 hPa | 0 mm | 0.89 m/s, 79° | - | - |
| 1777645803 | 15° C | 58% | 1016.7 hPa | 0 mm | 0 m/s | - | - |
| 1777645203 | 14.44° C | 58% | 1016.8 hPa | 0 mm | 0 m/s | - | - |
| 1777644603 | 15° C | 57% | 1016.8 hPa | 0 mm | 0 m/s | - | - |
| 1777644004 | 13.89° C | 58% | 1016.8 hPa | 0 mm | 0.45 m/s, 78° | - | - |
| 1777643403 | 13.33° C | 59% | 1016.8 hPa | 0 mm | 0.89 m/s, 43° | - | - |
| 1777642803 | 12.78° C | 60% | 1016.7 hPa | 0 mm | 0.89 m/s, 43° | - | - |
| 1777642203 | 12.78° C | 61% | 1016.7 hPa | 0 mm | 0 m/s | - | - |
| 1777641603 | 13.33° C | 60% | 1016.3 hPa | 0 mm | 0.89 m/s, 57° | - | - |
| 1777641003 | 12.78° C | 62% | 1016.8 hPa | 0 mm | 0.45 m/s, 4° | - | - |
| 1777640403 | 12.22° C | 64% | 1016.7 hPa | 0 mm | 0.45 m/s, 55° | - | - |
| 1777639804 | 12.22° C | 64% | 1016.7 hPa | 0 mm | 0.45 m/s, 68° | - | - |
| 1777639202 | 11.67° C | 64% | 1016.7 hPa | 0 mm | 0.89 m/s, 351° | - | - |
| 1777638603 | 11.67° C | 65% | 1016.6 hPa | 0 mm | 0.45 m/s, 59° | - | - |
| 1777638003 | 11.67° C | 64% | 1017 hPa | 0 mm | 0.45 m/s, 357° | - | - |
| 1777637404 | 11.67° C | 66% | 1017.1 hPa | 0 mm | 0 m/s | - | - |
| 1777636803 | 11.67° C | 64% | 1016.9 hPa | 0 mm | 0 m/s | - | - |
| 1777636203 | 11.67° C | 62% | 1016.7 hPa | 0 mm | 0 m/s | - | - |
| 1777635603 | 11.67° C | 63% | 1016.6 hPa | 0 mm | 0 m/s | - | - |
| 1777635003 | 11.11° C | 66% | 1016.6 hPa | 0 mm | 0 m/s | - | - |
| 1777634403 | 11.11° C | 66% | 1016.5 hPa | 0 mm | 0 m/s | - | - |
| 1777633803 | 11.67° C | 62% | 1016.1 hPa | 0 mm | 0 m/s | - | - |
* Rain latest hour (hover to see other rain measurements)
** Current wind speed in m/s (hover to see current wind gust speed)